createdAt,value
2019-05-23T00:01:33.465Z,10.70
2019-05-23T00:04:35.323Z,10.60
2019-05-23T00:07:28.375Z,10.50
2019-05-23T00:10:36.484Z,10.50
2019-05-23T00:13:36.187Z,10.40
2019-05-23T00:16:08.748Z,10.40
2019-05-23T00:18:38.237Z,10.40
2019-05-23T00:21:09.359Z,10.30
2019-05-23T00:23:39.203Z,10.30
2019-05-23T00:26:10.277Z,10.30
2019-05-23T00:28:41.983Z,10.30
2019-05-23T00:31:18.971Z,10.20
2019-05-23T00:33:48.911Z,10.20
2019-05-23T00:36:19.343Z,10.20
2019-05-23T00:38:51.188Z,10.10
2019-05-23T00:41:23.740Z,10.10
2019-05-23T00:43:53.633Z,10.10
2019-05-23T00:46:24.642Z,10.00
2019-05-23T00:48:55.538Z,10.00
2019-05-23T00:51:25.177Z,10.00
2019-05-23T00:53:54.735Z,9.90
2019-05-23T00:56:24.672Z,9.90
2019-05-23T00:58:54.909Z,9.90
2019-05-23T01:01:25.635Z,9.90
2019-05-23T01:03:56.089Z,9.90
2019-05-23T01:06:25.456Z,9.80
2019-05-23T01:08:54.812Z,9.80
2019-05-23T01:11:25.322Z,9.70
2019-05-23T01:13:55.999Z,9.70
2019-05-23T01:16:26.708Z,9.70
2019-05-23T01:18:56.167Z,9.60
2019-05-23T01:21:32.831Z,9.60
2019-05-23T01:24:21.952Z,9.60
2019-05-23T01:26:53.396Z,9.60
2019-05-23T01:29:24.533Z,9.60
2019-05-23T01:31:55.947Z,9.50
2019-05-23T01:34:26.923Z,9.50
2019-05-23T01:36:56.863Z,9.50
2019-05-23T01:39:26.445Z,9.50
2019-05-23T01:41:56.495Z,9.50
2019-05-23T01:44:26.327Z,9.50
2019-05-23T01:46:56.469Z,9.40
2019-05-23T01:49:26.016Z,9.40
2019-05-23T01:51:55.869Z,9.40
2019-05-23T01:54:25.869Z,9.30
2019-05-23T01:56:55.702Z,9.30
2019-05-23T01:59:25.533Z,9.30
2019-05-23T02:01:55.575Z,9.30
2019-05-23T02:04:25.118Z,9.20
2019-05-23T02:06:55.414Z,9.20
2019-05-23T02:09:24.819Z,9.20
2019-05-23T02:11:54.173Z,9.20
2019-05-23T02:14:25.119Z,9.20
2019-05-23T02:16:55.911Z,9.20
2019-05-23T02:19:26.533Z,9.20
2019-05-23T02:21:57.434Z,9.10
2019-05-23T02:24:26.788Z,9.10
2019-05-23T02:26:56.230Z,9.10
2019-05-23T02:29:26.029Z,9.00
2019-05-23T02:31:55.759Z,9.00
2019-05-23T02:34:25.493Z,9.00
2019-05-23T02:36:57.049Z,9.00
2019-05-23T02:39:31.559Z,9.00
2019-05-23T02:42:11.564Z,9.00
2019-05-23T02:44:41.220Z,9.00
2019-05-23T02:47:13.762Z,8.90
2019-05-23T02:49:44.608Z,8.90
2019-05-23T02:52:17.866Z,8.90
2019-05-23T02:54:47.793Z,8.90
2019-05-23T02:57:18.765Z,8.90
2019-05-23T02:59:51.853Z,8.90
2019-05-23T03:02:34.825Z,8.80
2019-05-23T03:05:06.984Z,8.80
2019-05-23T03:07:36.359Z,8.80
2019-05-23T03:10:08.826Z,8.80
2019-05-23T03:12:41.054Z,8.80
2019-05-23T03:15:12.711Z,8.70
2019-05-23T03:17:45.148Z,8.70
2019-05-23T03:20:16.263Z,8.70
2019-05-23T03:23:02.010Z,8.70
2019-05-23T03:25:38.829Z,8.70
2019-05-23T03:28:12.416Z,8.60
2019-05-23T03:30:44.087Z,8.60
2019-05-23T03:33:15.099Z,8.60
2019-05-23T03:35:52.145Z,8.60
2019-05-23T03:38:22.094Z,8.60
2019-05-23T03:40:52.285Z,8.60
2019-05-23T03:43:21.572Z,8.50
2019-05-23T03:45:52.515Z,8.50
2019-05-23T03:48:21.924Z,8.50
2019-05-23T03:50:52.065Z,8.50
2019-05-23T03:53:21.529Z,8.50
2019-05-23T03:55:52.950Z,8.50
2019-05-23T03:58:23.037Z,8.40
2019-05-23T04:00:54.256Z,8.40
2019-05-23T04:03:24.610Z,8.40
2019-05-23T04:05:55.947Z,8.40
2019-05-23T04:08:26.953Z,8.40
2019-05-23T04:10:56.572Z,8.40
2019-05-23T04:13:26.711Z,8.40
2019-05-23T04:15:56.135Z,8.40
2019-05-23T04:18:27.318Z,8.40
2019-05-23T04:20:56.792Z,8.40
2019-05-23T04:23:26.253Z,8.40
2019-05-23T04:25:55.720Z,8.30
2019-05-23T04:28:25.013Z,8.30
2019-05-23T04:30:54.689Z,8.40
2019-05-23T04:33:24.101Z,8.40
2019-05-23T04:35:53.395Z,8.50
2019-05-23T04:38:22.707Z,8.50
2019-05-23T04:40:51.980Z,8.60
2019-05-23T04:43:21.742Z,8.60
2019-05-23T04:45:51.107Z,8.60
2019-05-23T04:48:20.847Z,8.60
2019-05-23T04:50:50.139Z,8.70
2019-05-23T04:53:19.984Z,8.70
2019-05-23T04:55:49.335Z,8.80
2019-05-23T04:58:19.144Z,8.80
2019-05-23T05:00:48.638Z,8.80
2019-05-23T05:03:19.181Z,8.90
2019-05-23T05:05:48.753Z,8.90
2019-05-23T05:08:18.051Z,9.00
2019-05-23T05:10:48.346Z,9.00
2019-05-23T05:13:19.848Z,9.00
2019-05-23T05:15:50.020Z,9.10
2019-05-23T05:18:20.176Z,9.20
2019-05-23T05:20:49.552Z,9.20
2019-05-23T05:23:18.853Z,9.30
2019-05-23T05:25:48.328Z,9.30
2019-05-23T05:28:17.616Z,9.40
2019-05-23T05:30:47.079Z,9.60
2019-05-23T05:33:16.747Z,9.80
2019-05-23T05:35:46.315Z,10.00
2019-05-23T05:38:16.288Z,10.10
2019-05-23T05:40:46.019Z,10.40
2019-05-23T05:43:15.308Z,10.60
2019-05-23T05:45:45.068Z,10.90
2019-05-23T05:48:14.767Z,11.00
2019-05-23T05:50:44.059Z,11.20
2019-05-23T05:53:13.739Z,11.30
2019-05-23T05:55:43.128Z,11.50
2019-05-23T05:58:12.901Z,11.80
2019-05-23T06:00:46.795Z,12.20
2019-05-23T06:03:16.156Z,12.40
2019-05-23T06:05:47.182Z,12.60
2019-05-23T06:08:18.518Z,12.90
2019-05-23T06:10:47.982Z,13.10
2019-05-23T06:13:17.296Z,13.40
2019-05-23T06:15:46.671Z,13.60
2019-05-23T06:18:16.584Z,13.80
2019-05-23T06:20:47.625Z,13.90
2019-05-23T06:23:17.535Z,14.20
2019-05-23T06:25:46.897Z,14.50
2019-05-23T06:28:16.803Z,14.70
2019-05-23T06:30:47.472Z,14.70
2019-05-23T06:33:23.416Z,15.00
2019-05-23T06:35:48.115Z,15.10
2019-05-23T06:38:18.279Z,15.40
2019-05-23T06:40:48.037Z,15.80
2019-05-23T06:43:17.328Z,15.90
2019-05-23T06:45:47.141Z,16.00
2019-05-23T06:48:16.871Z,16.10
2019-05-23T06:50:47.346Z,16.30
2019-05-23T06:53:16.709Z,16.50
2019-05-23T06:55:46.020Z,16.70
2019-05-23T06:58:15.797Z,16.80
2019-05-23T07:00:45.773Z,16.90
2019-05-23T07:03:15.566Z,17.20
2019-05-23T07:05:45.420Z,17.20
2019-05-23T07:08:14.984Z,17.50
2019-05-23T07:10:44.804Z,17.40
2019-05-23T07:13:15.314Z,17.60
2019-05-23T07:15:44.991Z,17.90
2019-05-23T07:18:14.297Z,18.30
2019-05-23T07:20:43.677Z,18.30
2019-05-23T07:23:13.125Z,18.30
2019-05-23T07:25:43.380Z,18.50
2019-05-23T07:28:12.860Z,18.50
2019-05-23T07:30:42.241Z,18.60
2019-05-23T07:33:13.486Z,19.00
2019-05-23T07:35:42.844Z,19.40
2019-05-23T07:38:12.289Z,19.40
2019-05-23T07:40:41.671Z,19.60
2019-05-23T07:43:12.043Z,19.70
2019-05-23T07:45:44.024Z,19.60
2019-05-23T07:48:13.835Z,19.80
2019-05-23T07:50:44.045Z,20.00
2019-05-23T07:56:04.537Z,20.10
2019-05-23T07:58:34.063Z,20.20
2019-05-23T08:01:07.837Z,20.20
2019-05-23T08:03:39.746Z,20.10
2019-05-23T08:06:09.317Z,20.00
2019-05-23T08:08:38.971Z,20.20
2019-05-23T08:11:08.346Z,20.50
2019-05-23T08:13:37.647Z,20.50
2019-05-23T08:16:07.125Z,20.60
2019-05-23T08:18:36.865Z,20.80
2019-05-23T08:21:06.235Z,21.10
2019-05-23T08:23:35.531Z,21.30
2019-05-23T08:26:05.682Z,21.10
2019-05-23T08:28:35.549Z,21.30
2019-05-23T08:31:05.563Z,21.30
2019-05-23T08:33:35.867Z,21.50
2019-05-23T08:36:05.261Z,21.50
2019-05-23T08:38:34.927Z,21.40
2019-05-23T08:41:05.838Z,21.50
2019-05-23T08:43:35.244Z,21.50
2019-05-23T08:46:06.179Z,21.70
2019-05-23T08:48:35.556Z,21.80
2019-05-23T08:51:05.126Z,21.90
2019-05-23T08:53:34.595Z,21.70
2019-05-23T08:56:17.495Z,21.70
2019-05-23T08:58:35.932Z,21.60
2019-05-23T09:01:05.405Z,21.60
2019-05-23T09:07:00.613Z,22.00
2019-05-23T09:09:31.571Z,22.30
2019-05-23T09:12:01.052Z,22.60
2019-05-23T09:14:30.720Z,22.50
2019-05-23T09:17:00.354Z,22.60
2019-05-23T09:19:29.660Z,22.60
2019-05-23T09:21:58.970Z,22.70
2019-05-23T09:24:28.272Z,22.90
2019-05-23T09:26:57.846Z,22.90
2019-05-23T09:29:27.588Z,22.90
2019-05-23T09:31:56.905Z,23.00
2019-05-23T09:34:26.414Z,23.10
2019-05-23T09:36:55.709Z,23.30
2019-05-23T09:39:26.728Z,23.30
2019-05-23T09:41:56.188Z,23.40
2019-05-23T09:44:25.492Z,23.40
2019-05-23T09:46:55.177Z,23.50
2019-05-23T09:49:24.992Z,23.50
2019-05-23T09:51:59.112Z,23.50
2019-05-23T09:54:26.296Z,23.30
2019-05-23T09:56:55.653Z,23.30
2019-05-23T09:59:25.722Z,23.50
2019-05-23T10:01:56.236Z,23.60
2019-05-23T10:04:25.623Z,23.70
2019-05-23T10:06:55.094Z,23.40
2019-05-23T10:09:24.404Z,23.50
2019-05-23T10:11:54.174Z,23.50
2019-05-23T10:14:27.843Z,23.60
2019-05-23T10:16:57.167Z,23.80
2019-05-23T10:19:26.530Z,23.90
2019-05-23T10:21:55.981Z,23.80
2019-05-23T10:24:25.347Z,23.80
2019-05-23T10:26:54.771Z,23.90
2019-05-23T10:29:24.074Z,23.90
2019-05-23T10:31:53.375Z,23.80
2019-05-23T10:34:23.023Z,23.90
2019-05-23T10:36:55.119Z,24.00
2019-05-23T10:39:24.420Z,24.20
2019-05-23T10:41:53.719Z,24.40
2019-05-23T10:44:23.062Z,24.10
2019-05-23T10:46:52.357Z,24.00
2019-05-23T10:49:21.804Z,24.20
2019-05-23T10:51:51.205Z,24.20
2019-05-23T10:54:21.716Z,24.00
2019-05-23T10:56:51.051Z,23.80
2019-05-23T10:59:20.341Z,23.80
2019-05-23T11:01:49.928Z,23.80
2019-05-23T11:04:19.668Z,24.10
2019-05-23T11:06:48.964Z,24.10
2019-05-23T11:09:18.659Z,24.30
2019-05-23T11:11:48.213Z,24.30
2019-05-23T11:14:17.923Z,24.40
2019-05-23T11:16:47.285Z,24.40
2019-05-23T11:19:16.749Z,24.50
2019-05-23T11:21:46.080Z,24.50
2019-05-23T11:24:15.851Z,24.70
2019-05-23T11:26:45.510Z,24.70
2019-05-23T11:29:15.007Z,24.60
2019-05-23T11:31:44.576Z,24.60
2019-05-23T11:34:14.046Z,24.80
2019-05-23T11:36:43.562Z,24.90
2019-05-23T11:39:13.138Z,25.10
2019-05-23T11:41:42.458Z,24.90
2019-05-23T11:44:11.767Z,24.90
2019-05-23T11:46:41.526Z,24.70
2019-05-23T11:49:11.012Z,24.80
2019-05-23T11:51:40.375Z,24.90
2019-05-23T11:54:10.286Z,24.80
2019-05-23T11:56:39.748Z,24.70
2019-05-23T11:59:09.281Z,24.50
2019-05-23T12:01:49.524Z,24.50
2019-05-23T12:04:21.276Z,24.60
2019-05-23T12:06:55.687Z,24.40
2019-05-23T12:09:23.500Z,24.30
2019-05-23T12:11:53.273Z,24.10
2019-05-23T12:14:22.601Z,24.20
2019-05-23T12:16:52.634Z,24.20
2019-05-23T12:19:22.529Z,24.30
2019-05-23T12:21:51.823Z,24.50
2019-05-23T12:24:21.125Z,24.50
2019-05-23T12:26:50.613Z,24.50
2019-05-23T12:29:20.078Z,24.60
2019-05-23T12:31:49.979Z,24.40
2019-05-23T12:34:19.396Z,24.70
2019-05-23T12:36:48.752Z,25.00
2019-05-23T12:39:18.374Z,25.10
2019-05-23T12:41:47.727Z,25.20
2019-05-23T12:44:17.889Z,25.30
2019-05-23T12:46:47.671Z,25.00
2019-05-23T12:49:18.611Z,24.80
2019-05-23T12:51:48.163Z,25.00
2019-05-23T12:54:17.459Z,25.00
2019-05-23T12:56:49.055Z,24.90
2019-05-23T12:59:19.174Z,24.90
2019-05-23T13:01:50.276Z,25.00
2019-05-23T13:04:19.698Z,25.20
2019-05-23T13:06:49.763Z,25.20
2019-05-23T13:09:19.172Z,25.10
2019-05-23T13:11:49.011Z,24.90
2019-05-23T13:14:18.550Z,24.70
2019-05-23T13:16:48.085Z,24.80
2019-05-23T13:19:18.391Z,24.90
2019-05-23T13:21:47.756Z,24.90
2019-05-23T13:24:17.092Z,24.90
2019-05-23T13:26:46.392Z,24.90
2019-05-23T13:29:15.683Z,24.80
2019-05-23T13:31:45.429Z,24.80
2019-05-23T13:34:14.719Z,24.80
2019-05-23T13:36:44.030Z,24.50
2019-05-23T13:39:14.059Z,24.50
2019-05-23T13:41:43.445Z,24.60
2019-05-23T13:44:31.904Z,24.50
2019-05-23T13:46:45.068Z,24.50
2019-05-23T13:49:14.924Z,24.40
2019-05-23T13:51:56.706Z,24.30
2019-05-23T13:54:26.465Z,24.10
2019-05-23T13:56:56.542Z,24.10
2019-05-23T13:59:25.852Z,24.20
2019-05-23T14:01:55.163Z,24.20
2019-05-23T14:04:24.544Z,24.20
2019-05-23T14:06:53.927Z,24.40
2019-05-23T14:09:25.485Z,24.50
2019-05-23T14:12:20.068Z,24.60
2019-05-23T14:14:25.948Z,24.70
2019-05-23T14:17:13.436Z,24.80
2019-05-23T14:19:42.869Z,24.80
2019-05-23T14:22:12.168Z,24.80
2019-05-23T14:24:42.543Z,24.70
2019-05-23T14:27:29.034Z,24.70
2019-05-23T14:30:07.654Z,24.70
2019-05-23T14:32:34.327Z,24.80
2019-05-23T14:35:05.067Z,25.00
2019-05-23T14:37:41.776Z,25.00
2019-05-23T14:40:11.583Z,25.10
2019-05-23T14:42:48.019Z,25.00
2019-05-23T14:45:20.208Z,24.80
2019-05-23T14:47:51.309Z,24.60
2019-05-23T14:50:40.933Z,24.50
2019-05-23T14:53:12.824Z,24.60
2019-05-23T14:55:42.121Z,24.50
2019-05-23T14:58:11.687Z,24.50
2019-05-23T15:00:41.459Z,24.50
2019-05-23T15:03:10.832Z,24.50
2019-05-23T15:05:40.103Z,24.40
2019-05-23T15:08:09.689Z,24.10
2019-05-23T15:10:40.019Z,24.00
2019-05-23T15:13:09.307Z,24.10
2019-05-23T15:15:38.652Z,24.10
2019-05-23T15:18:08.609Z,24.20
2019-05-23T15:20:37.913Z,24.20
2019-05-23T15:23:08.753Z,24.10
2019-05-23T15:25:38.199Z,24.00
2019-05-23T15:28:07.836Z,23.90
2019-05-23T15:30:37.455Z,23.90
2019-05-23T15:33:09.887Z,23.80
2019-05-23T15:35:41.428Z,23.80
2019-05-23T15:38:10.503Z,23.80
2019-05-23T15:40:39.934Z,23.90
2019-05-23T15:43:10.135Z,23.90
2019-05-23T15:45:39.887Z,23.90
2019-05-23T15:48:10.341Z,24.00
2019-05-23T15:50:50.216Z,24.10
2019-05-23T15:53:38.104Z,24.20
2019-05-23T15:56:27.423Z,24.20
2019-05-23T15:58:56.312Z,24.10
2019-05-23T16:01:27.583Z,24.10
2019-05-23T16:04:01.400Z,24.00
2019-05-23T16:06:34.611Z,23.90
2019-05-23T16:09:06.480Z,23.90
2019-05-23T16:11:36.102Z,23.70
2019-05-23T16:14:05.846Z,23.60
2019-05-23T16:16:35.186Z,23.60
2019-05-23T16:19:05.140Z,23.60
2019-05-23T16:21:34.810Z,23.50
2019-05-23T16:24:06.473Z,23.40
2019-05-23T16:26:36.172Z,23.40
2019-05-23T16:29:06.109Z,23.50
2019-05-23T16:31:35.901Z,23.40
2019-05-23T16:34:05.210Z,23.40
2019-05-23T16:36:34.665Z,23.40
2019-05-23T16:39:06.784Z,23.20
2019-05-23T16:41:36.216Z,23.20
2019-05-23T16:44:05.830Z,23.10
2019-05-23T16:46:35.131Z,23.00
2019-05-23T16:49:05.008Z,22.90
2019-05-23T16:51:34.318Z,22.70
2019-05-23T16:54:04.262Z,22.70
2019-05-23T16:56:35.212Z,22.70
2019-05-23T16:59:08.940Z,22.60
2019-05-23T17:01:56.134Z,22.50
2019-05-23T17:04:30.875Z,22.40
2019-05-23T17:07:18.081Z,22.40
2019-05-23T17:10:06.869Z,22.30
2019-05-23T17:12:24.795Z,22.20
2019-05-23T17:14:55.768Z,22.10
2019-05-23T17:18:00.689Z,22.00
2019-05-23T17:20:20.454Z,21.90
2019-05-23T17:22:54.597Z,21.80
2019-05-23T17:25:40.798Z,21.70
2019-05-23T17:28:12.127Z,21.60
2019-05-23T17:30:59.325Z,21.50
2019-05-23T17:33:29.043Z,21.50
2019-05-23T17:36:10.730Z,21.40
2019-05-23T17:38:40.171Z,21.30
2019-05-23T17:41:10.209Z,21.20
2019-05-23T17:43:39.915Z,21.20
2019-05-23T17:46:09.288Z,21.10
2019-05-23T17:48:38.893Z,21.00
2019-05-23T17:51:08.283Z,21.00
2019-05-23T17:53:37.583Z,20.90
2019-05-23T17:56:07.429Z,20.80
2019-05-23T17:58:37.709Z,20.80
2019-05-23T18:01:08.248Z,20.60
2019-05-23T18:03:38.280Z,20.60
2019-05-23T18:06:08.400Z,20.50
2019-05-23T18:08:37.714Z,20.40
2019-05-23T18:11:07.024Z,20.40
2019-05-23T18:13:37.049Z,20.30
2019-05-23T18:16:06.554Z,20.30
2019-05-23T18:18:35.927Z,20.20
2019-05-23T18:21:06.332Z,20.10
2019-05-23T18:23:35.964Z,20.10
2019-05-23T18:26:06.516Z,20.00
2019-05-23T18:28:36.103Z,20.00
2019-05-23T18:31:23.463Z,19.90
2019-05-23T18:33:53.124Z,19.80
2019-05-23T18:36:22.992Z,19.70
2019-05-23T18:38:52.502Z,19.60
2019-05-23T18:41:22.743Z,19.60
2019-05-23T18:43:52.648Z,19.50
2019-05-23T18:46:27.057Z,19.50
2019-05-23T18:48:56.351Z,19.40
2019-05-23T18:51:25.796Z,19.30
2019-05-23T18:53:55.100Z,19.20
2019-05-23T18:56:24.534Z,19.10
2019-05-23T18:58:53.989Z,19.00
2019-05-23T19:01:24.967Z,18.90
2019-05-23T19:03:54.571Z,18.90
2019-05-23T19:06:24.601Z,18.80
2019-05-23T19:08:54.356Z,18.70
2019-05-23T19:11:23.737Z,18.70
2019-05-23T19:13:53.042Z,18.60
2019-05-23T19:16:22.512Z,18.50
2019-05-23T19:18:51.811Z,18.50
2019-05-23T19:21:21.841Z,18.40
2019-05-23T19:23:51.607Z,18.40
2019-05-23T19:26:22.755Z,18.40
2019-05-23T19:28:52.356Z,18.30
2019-05-23T19:31:22.000Z,18.30
2019-05-23T19:33:51.980Z,18.20
2019-05-23T19:36:22.461Z,18.20
2019-05-23T19:38:52.108Z,18.10
2019-05-23T19:41:36.021Z,18.00
2019-05-23T19:43:53.420Z,17.90
2019-05-23T19:46:22.723Z,17.90
2019-05-23T19:48:52.653Z,17.80
2019-05-23T19:51:22.142Z,17.70
2019-05-23T19:53:51.602Z,17.60
2019-05-23T19:56:20.904Z,17.50
2019-05-23T19:58:50.207Z,17.40
2019-05-23T20:01:19.988Z,17.40
2019-05-23T20:03:49.745Z,17.30
2019-05-23T20:06:19.775Z,17.30
2019-05-23T20:08:49.303Z,17.20
2019-05-23T20:11:18.968Z,17.10
2019-05-23T20:13:48.267Z,17.00
2019-05-23T20:16:17.740Z,17.00
2019-05-23T20:18:47.380Z,16.90
2019-05-23T20:21:17.011Z,16.80
2019-05-23T20:23:46.381Z,16.70
2019-05-23T20:26:15.768Z,16.70
2019-05-23T20:28:45.077Z,16.60
2019-05-23T20:31:14.542Z,16.60
2019-05-23T20:33:43.848Z,16.50
2019-05-23T20:36:14.896Z,16.40
2019-05-23T20:38:44.537Z,16.40
2019-05-23T20:41:14.004Z,16.30
2019-05-23T20:43:43.456Z,16.20
2019-05-23T20:46:12.881Z,16.20
2019-05-23T20:48:42.751Z,16.00
2019-05-23T20:51:12.193Z,16.00
2019-05-23T20:53:42.023Z,15.90
2019-05-23T20:56:11.621Z,15.90
2019-05-23T20:58:40.993Z,15.80
2019-05-23T21:01:18.746Z,15.80
2019-05-23T21:03:48.432Z,15.70
2019-05-23T21:06:17.746Z,15.70
2019-05-23T21:08:47.055Z,15.60
2019-05-23T21:11:16.500Z,15.60
2019-05-23T21:13:45.795Z,15.50
2019-05-23T21:16:15.100Z,15.40
2019-05-23T21:18:49.209Z,15.40
2019-05-23T21:21:16.456Z,15.30
2019-05-23T21:23:45.772Z,15.30
2019-05-23T21:26:15.218Z,15.20
2019-05-23T21:28:44.676Z,15.20
2019-05-23T21:31:17.447Z,15.10
2019-05-23T21:33:46.812Z,15.10
2019-05-23T21:36:16.124Z,15.00
2019-05-23T21:38:45.639Z,15.00
2019-05-23T21:41:15.822Z,14.90
2019-05-23T21:43:49.259Z,14.90
2019-05-23T21:46:17.778Z,14.80
2019-05-23T21:48:47.003Z,14.80
2019-05-23T21:51:16.301Z,14.80
2019-05-23T21:53:45.599Z,14.70
2019-05-23T21:56:14.987Z,14.70
2019-05-23T21:58:44.363Z,14.60
2019-05-23T22:01:18.032Z,14.60
2019-05-23T22:04:01.081Z,14.50
2019-05-23T22:06:32.012Z,14.50
2019-05-23T22:09:02.198Z,14.40
2019-05-23T22:11:31.776Z,14.40
2019-05-23T22:14:02.303Z,14.30
2019-05-23T22:16:31.605Z,14.30
2019-05-23T22:19:01.189Z,14.20
2019-05-23T22:21:30.526Z,14.20
2019-05-23T22:24:00.022Z,14.20
2019-05-23T22:26:29.380Z,14.10
2019-05-23T22:28:58.704Z,14.00
2019-05-23T22:31:28.575Z,14.00
2019-05-23T22:34:16.283Z,14.00
2019-05-23T22:36:45.597Z,14.00
2019-05-23T22:39:15.433Z,13.90
2019-05-23T22:41:44.744Z,13.90
2019-05-23T22:44:14.044Z,13.70
2019-05-23T22:46:43.517Z,13.70
2019-05-23T22:49:13.792Z,13.70
2019-05-23T22:51:43.111Z,13.60
2019-05-23T22:54:13.499Z,13.60
2019-05-23T22:56:42.891Z,13.60
2019-05-23T22:59:12.201Z,13.60
2019-05-23T23:01:41.506Z,13.50
2019-05-23T23:04:12.361Z,13.50
2019-05-23T23:06:41.810Z,13.50
2019-05-23T23:09:11.383Z,13.50
2019-05-23T23:11:40.719Z,13.40
2019-05-23T23:14:10.017Z,13.40
2019-05-23T23:16:39.321Z,13.40
2019-05-23T23:19:08.709Z,13.40
2019-05-23T23:21:38.044Z,13.30
2019-05-23T23:24:07.442Z,13.30
2019-05-23T23:26:36.748Z,13.30
2019-05-23T23:29:06.959Z,13.20
2019-05-23T23:31:36.262Z,13.20
2019-05-23T23:34:05.559Z,13.10
2019-05-23T23:36:35.031Z,13.10
2019-05-23T23:39:06.698Z,13.00
2019-05-23T23:41:36.204Z,13.00
2019-05-23T23:44:08.595Z,13.00
2019-05-23T23:46:55.829Z,13.00
2019-05-23T23:49:43.281Z,12.90
2019-05-23T23:52:31.839Z,12.90
2019-05-23T23:55:19.058Z,12.90
2019-05-23T23:57:59.825Z,12.90
